createdAt,value
2018-09-05T00:02:51.077Z,17.22
2018-09-05T00:05:51.053Z,17.17
2018-09-05T00:08:51.014Z,17.14
2018-09-05T00:11:50.988Z,17.04
2018-09-05T00:14:50.950Z,17.00
2018-09-05T00:17:50.967Z,16.85
2018-09-05T00:20:50.895Z,16.78
2018-09-05T00:23:50.889Z,16.78
2018-09-05T00:26:50.818Z,16.70
2018-09-05T00:29:50.810Z,16.60
2018-09-05T00:32:50.753Z,16.77
2018-09-05T00:35:50.770Z,16.70
2018-09-05T00:38:50.672Z,16.59
2018-09-05T00:41:50.695Z,16.67
2018-09-05T00:44:50.625Z,16.63
2018-09-05T00:47:50.603Z,16.40
2018-09-05T00:50:50.538Z,16.42
2018-09-05T00:53:50.549Z,16.31
2018-09-05T00:56:50.550Z,16.34
2018-09-05T00:59:50.466Z,16.33
2018-09-05T01:02:50.412Z,16.33
2018-09-05T01:05:50.389Z,16.31
2018-09-05T01:08:50.375Z,16.33
2018-09-05T01:11:50.348Z,16.40
2018-09-05T01:14:50.267Z,16.48
2018-09-05T01:17:50.308Z,16.62
2018-09-05T01:20:50.248Z,16.45
2018-09-05T01:23:50.205Z,16.44
2018-09-05T01:26:50.149Z,16.31
2018-09-05T01:29:50.147Z,16.42
2018-09-05T01:32:50.092Z,16.45
2018-09-05T01:35:50.062Z,16.42
2018-09-05T01:38:50.006Z,16.49
2018-09-05T01:41:49.987Z,16.38
2018-09-05T01:44:49.940Z,16.59
2018-09-05T01:47:49.940Z,16.67
2018-09-05T01:50:49.867Z,16.78
2018-09-05T01:53:49.854Z,16.78
2018-09-05T01:56:49.811Z,17.04
2018-09-05T01:59:49.824Z,17.20
2018-09-05T02:02:49.735Z,17.22
2018-09-05T02:05:49.745Z,17.36
2018-09-05T02:08:49.673Z,17.40
2018-09-05T02:11:49.658Z,17.47
2018-09-05T02:14:49.610Z,17.48
2018-09-05T02:17:49.625Z,17.55
2018-09-05T02:20:49.557Z,17.66
2018-09-05T02:23:49.518Z,17.57
2018-09-05T02:26:49.472Z,17.55
2018-09-05T02:29:49.485Z,17.51
2018-09-05T02:32:49.406Z,17.54
2018-09-05T02:35:49.440Z,17.57
2018-09-05T02:38:49.349Z,17.55
2018-09-05T02:41:49.314Z,17.54
2018-09-05T02:44:49.287Z,17.57
2018-09-05T02:47:49.256Z,17.62
2018-09-05T02:50:49.220Z,17.47
2018-09-05T02:53:49.207Z,17.33
2018-09-05T02:56:49.179Z,17.35
2018-09-05T02:59:49.146Z,17.23
2018-09-05T03:02:49.072Z,17.33
2018-09-05T03:05:49.068Z,17.29
2018-09-05T03:08:49.012Z,17.47
2018-09-05T03:11:49.044Z,17.51
2018-09-05T03:14:48.943Z,17.50
2018-09-05T03:17:48.935Z,17.50
2018-09-05T03:20:48.898Z,17.50
2018-09-05T03:23:48.862Z,17.54
2018-09-05T03:26:48.798Z,17.50
2018-09-05T03:29:48.792Z,17.66
2018-09-05T03:32:48.863Z,17.73
2018-09-05T03:35:48.731Z,17.73
2018-09-05T03:38:48.700Z,17.88
2018-09-05T03:41:48.651Z,17.88
2018-09-05T03:44:48.628Z,17.85
2018-09-05T03:47:48.629Z,17.89
2018-09-05T03:50:48.593Z,17.94
2018-09-05T03:53:48.525Z,17.91
2018-09-05T03:56:48.476Z,17.99
2018-09-05T03:59:48.466Z,18.09
2018-09-05T04:02:48.402Z,18.09
2018-09-05T04:05:48.415Z,18.19
2018-09-05T04:08:48.351Z,18.25
2018-09-05T04:11:48.373Z,18.07
2018-09-05T04:14:48.316Z,17.97
2018-09-05T04:17:48.252Z,17.92
2018-09-05T04:20:48.220Z,17.82
2018-09-05T04:23:48.199Z,17.70
2018-09-05T04:26:48.140Z,17.54
2018-09-05T04:29:48.125Z,17.63
2018-09-05T04:32:48.070Z,17.63
2018-09-05T04:35:48.108Z,17.54
2018-09-05T04:38:47.999Z,17.66
2018-09-05T04:41:48.079Z,17.69
2018-09-05T04:44:47.963Z,17.70
2018-09-05T04:47:47.926Z,17.66
2018-09-05T04:50:47.881Z,17.73
2018-09-05T04:53:47.855Z,17.71
2018-09-05T04:56:47.814Z,17.66
2018-09-05T04:59:47.787Z,17.64
2018-09-05T05:02:47.734Z,17.66
2018-09-05T05:05:47.765Z,17.76
2018-09-05T05:08:47.701Z,17.73
2018-09-05T05:11:47.647Z,17.87
2018-09-05T05:14:47.632Z,17.88
2018-09-05T05:17:47.582Z,17.97
2018-09-05T05:20:47.575Z,18.00
2018-09-05T05:23:47.510Z,17.97
2018-09-05T05:26:47.479Z,18.09
2018-09-05T05:29:47.448Z,18.17
2018-09-05T05:32:47.462Z,18.24
2018-09-05T05:35:47.398Z,18.07
2018-09-05T05:38:47.341Z,18.06
2018-09-05T05:41:47.350Z,18.19
2018-09-05T05:44:47.303Z,18.22
2018-09-05T05:47:47.338Z,18.33
2018-09-05T05:50:47.198Z,18.34
2018-09-05T05:53:47.215Z,18.58
2018-09-05T05:56:47.181Z,18.72
2018-09-05T05:59:47.155Z,18.73
2018-09-05T06:02:47.070Z,18.84
2018-09-05T06:05:47.067Z,18.83
2018-09-05T06:08:47.012Z,18.92
2018-09-05T06:11:47.060Z,19.02
2018-09-05T06:14:46.954Z,19.08
2018-09-05T06:17:47.099Z,19.23
2018-09-05T06:20:46.903Z,19.24
2018-09-05T06:23:46.852Z,19.33
2018-09-05T06:26:46.821Z,19.47
2018-09-05T06:29:46.795Z,19.53
2018-09-05T06:32:46.732Z,19.60
2018-09-05T06:35:46.719Z,19.84
2018-09-05T06:38:46.674Z,20.05
2018-09-05T06:41:46.639Z,20.13
2018-09-05T06:44:46.625Z,20.42
2018-09-05T06:47:46.601Z,20.46
2018-09-05T06:50:46.536Z,20.41
2018-09-05T06:53:46.536Z,20.46
2018-09-05T06:56:46.499Z,20.53
2018-09-05T06:59:46.457Z,20.64
2018-09-05T07:02:46.422Z,20.53
2018-09-05T07:05:46.399Z,20.71
2018-09-05T07:08:46.331Z,20.84
2018-09-05T07:11:46.316Z,21.14
2018-09-05T07:14:46.282Z,21.19
2018-09-05T07:17:46.273Z,21.35
2018-09-05T07:20:46.198Z,21.29
2018-09-05T07:23:46.183Z,21.45
2018-09-05T07:26:46.134Z,21.57
2018-09-05T07:29:46.142Z,21.72
2018-09-05T07:32:46.087Z,21.97
2018-09-05T07:35:46.120Z,22.16
2018-09-05T07:38:46.004Z,22.34
2018-09-05T07:41:45.993Z,22.54
2018-09-05T07:44:45.947Z,22.65
2018-09-05T07:47:45.956Z,22.62
2018-09-05T07:50:45.982Z,22.86
2018-09-05T07:53:45.879Z,22.93
2018-09-05T07:56:45.832Z,23.05
2018-09-05T07:59:45.840Z,22.86
2018-09-05T08:02:45.763Z,23.09
2018-09-05T08:05:45.758Z,23.31
2018-09-05T08:08:45.684Z,23.20
2018-09-05T08:11:45.711Z,23.71
2018-09-05T08:14:45.616Z,23.95
2018-09-05T08:17:45.634Z,24.17
2018-09-05T08:20:45.583Z,24.39
2018-09-05T08:23:45.575Z,24.60
2018-09-05T08:26:45.512Z,24.61
2018-09-05T08:29:45.472Z,24.56
2018-09-05T08:32:45.419Z,24.45
2018-09-05T08:35:45.560Z,24.56
2018-09-05T08:38:45.430Z,24.80
2018-09-05T08:41:45.382Z,24.85
2018-09-05T08:44:45.546Z,25.32
2018-09-05T08:47:45.289Z,25.93
2018-09-05T08:50:45.241Z,26.09
2018-09-05T08:53:45.237Z,26.12
2018-09-05T08:56:45.182Z,26.65
2018-09-05T08:59:45.271Z,26.49
2018-09-05T09:02:45.201Z,26.84
2018-09-05T09:05:45.165Z,26.46
2018-09-05T09:08:45.053Z,26.96
2018-09-05T09:11:45.155Z,27.38
2018-09-05T09:14:45.014Z,27.62
2018-09-05T09:17:44.993Z,27.20
2018-09-05T09:20:45.568Z,26.81
2018-09-05T09:23:44.941Z,27.35
2018-09-05T09:26:51.663Z,26.96
2018-09-05T09:29:44.847Z,26.96
2018-09-05T09:32:44.822Z,27.76
2018-09-05T09:35:44.793Z,27.71
2018-09-05T09:38:44.750Z,27.76
2018-09-05T09:41:44.725Z,28.25
2018-09-05T09:44:44.678Z,29.00
2018-09-05T09:47:44.670Z,29.01
2018-09-05T09:50:44.627Z,27.69
2018-09-05T09:53:44.692Z,27.71
2018-09-05T09:56:44.712Z,28.13
2018-09-05T09:59:44.591Z,29.00
2018-09-05T10:02:44.551Z,29.10
2018-09-05T10:05:44.533Z,28.96
2018-09-05T10:08:44.484Z,29.23
2018-09-05T10:11:44.423Z,28.82
2018-09-05T10:14:44.421Z,29.11
2018-09-05T10:17:44.366Z,29.63
2018-09-05T10:20:44.336Z,29.53
2018-09-05T10:23:44.293Z,29.90
2018-09-05T10:26:44.305Z,29.52
2018-09-05T10:29:44.283Z,29.78
2018-09-05T10:32:44.310Z,29.72
2018-09-05T10:35:44.237Z,30.81
2018-09-05T10:38:44.144Z,31.27
2018-09-05T10:41:44.131Z,32.64
2018-09-05T10:44:44.173Z,32.52
2018-09-05T10:47:44.103Z,33.79
2018-09-05T10:50:44.114Z,31.77
2018-09-05T10:53:44.142Z,31.36
2018-09-05T10:56:44.594Z,31.84
2018-09-05T10:59:44.240Z,32.17
2018-09-05T11:02:44.000Z,33.51
2018-09-05T11:05:44.299Z,33.17
2018-09-05T11:08:43.933Z,32.59
2018-09-05T11:11:43.968Z,34.02
2018-09-05T11:14:43.836Z,34.63
2018-09-05T11:17:43.782Z,33.06
2018-09-05T11:20:43.734Z,32.88
2018-09-05T11:23:43.748Z,32.54
2018-09-05T11:26:44.082Z,32.62
2018-09-05T11:29:43.682Z,33.01
2018-09-05T11:32:43.650Z,33.42
2018-09-05T11:35:43.631Z,32.62
2018-09-05T11:38:43.591Z,31.40
2018-09-05T11:41:43.551Z,30.68
2018-09-05T11:44:43.538Z,31.04
2018-09-05T11:47:43.522Z,32.25
2018-09-05T11:50:43.480Z,34.42
2018-09-05T11:53:43.472Z,34.50
2018-09-05T11:56:43.433Z,33.74
2018-09-05T11:59:43.393Z,34.31
2018-09-05T12:02:43.357Z,34.51
2018-09-05T12:05:43.361Z,33.76
2018-09-05T12:08:43.313Z,33.06
2018-09-05T12:11:43.356Z,33.64
2018-09-05T12:14:43.268Z,34.05
2018-09-05T12:17:43.229Z,33.87
2018-09-05T12:20:43.198Z,34.27
2018-09-05T12:23:43.217Z,34.07
2018-09-05T12:26:43.140Z,32.67
2018-09-05T12:29:43.170Z,32.64
2018-09-05T12:32:43.080Z,33.64
2018-09-05T12:35:43.103Z,33.14
2018-09-05T12:38:43.085Z,33.55
2018-09-05T12:41:43.120Z,33.70
2018-09-05T12:44:43.004Z,33.52
2018-09-05T12:47:43.061Z,32.69
2018-09-05T12:50:43.010Z,31.54
2018-09-05T12:53:42.963Z,32.59
2018-09-05T12:56:42.929Z,31.01
2018-09-05T12:59:42.889Z,31.31
2018-09-05T13:02:42.832Z,31.02
2018-09-05T13:05:42.821Z,31.05
2018-09-05T13:08:42.872Z,30.62
2018-09-05T13:11:42.820Z,30.50
2018-09-05T13:14:42.727Z,30.96
2018-09-05T13:17:42.707Z,29.87
2018-09-05T13:20:42.677Z,30.75
2018-09-05T13:23:42.611Z,30.68
2018-09-05T13:26:42.672Z,29.81
2018-09-05T13:29:42.573Z,29.16
2018-09-05T13:32:42.499Z,29.75
2018-09-05T13:35:42.502Z,29.66
2018-09-05T13:38:42.510Z,29.06
2018-09-05T13:41:42.493Z,28.96
2018-09-05T13:44:42.378Z,29.60
2018-09-05T13:47:42.414Z,29.52
2018-09-05T13:50:42.337Z,29.92
2018-09-05T13:53:42.363Z,30.36
2018-09-05T13:56:42.340Z,30.45
2018-09-05T13:59:42.267Z,31.20
2018-09-05T14:02:42.308Z,31.53
2018-09-05T14:05:42.189Z,30.64
2018-09-05T14:08:42.160Z,30.31
2018-09-05T14:11:44.272Z,29.81
2018-09-05T14:14:43.078Z,30.03
2018-09-05T14:17:42.057Z,30.12
2018-09-05T14:20:43.099Z,30.12
2018-09-05T14:23:43.664Z,30.03
2018-09-05T14:26:41.971Z,29.65
2018-09-05T14:29:41.918Z,29.19
2018-09-05T14:32:41.916Z,29.33
2018-09-05T14:35:41.861Z,29.63
2018-09-05T14:38:42.829Z,29.45
2018-09-05T14:41:41.791Z,29.45
2018-09-05T14:44:41.749Z,29.93
2018-09-05T14:47:41.728Z,30.33
2018-09-05T14:50:41.684Z,30.14
2018-09-05T14:53:41.678Z,29.78
2018-09-05T14:56:41.619Z,29.99
2018-09-05T14:59:41.621Z,30.21
2018-09-05T15:02:41.564Z,30.87
2018-09-05T15:05:41.570Z,31.42
2018-09-05T15:08:41.510Z,31.48
2018-09-05T15:11:41.491Z,31.20
2018-09-05T15:14:41.486Z,30.36
2018-09-05T15:17:41.548Z,30.21
2018-09-05T15:20:41.375Z,30.49
2018-09-05T15:23:41.463Z,29.70
2018-09-05T15:26:41.420Z,29.56
2018-09-05T15:29:41.300Z,29.56
2018-09-05T15:32:41.263Z,29.35
2018-09-05T15:35:41.289Z,29.57
2018-09-05T15:38:41.182Z,29.45
2018-09-05T15:41:41.187Z,29.57
2018-09-05T15:44:41.209Z,29.22
2018-09-05T15:47:41.129Z,28.78
2018-09-05T15:50:41.075Z,28.43
2018-09-05T15:53:41.079Z,27.82
2018-09-05T15:56:41.062Z,26.98
2018-09-05T15:59:41.059Z,26.91
2018-09-05T16:02:40.944Z,26.92
2018-09-05T16:05:42.602Z,26.92
2018-09-05T16:08:40.900Z,26.74
2018-09-05T16:11:40.891Z,26.80
2018-09-05T16:14:40.833Z,26.62
2018-09-05T16:17:40.793Z,26.64
2018-09-05T16:20:40.749Z,26.59
2018-09-05T16:23:40.721Z,26.40
2018-09-05T16:26:48.018Z,26.22
2018-09-05T16:29:40.655Z,26.08
2018-09-05T16:32:40.597Z,25.94
2018-09-05T16:35:40.639Z,26.06
2018-09-05T16:38:40.534Z,25.90
2018-09-05T16:41:40.525Z,25.89
2018-09-05T16:44:40.473Z,25.97
2018-09-05T16:47:40.497Z,25.90
2018-09-05T16:50:40.407Z,25.82
2018-09-05T16:53:40.427Z,25.75
2018-09-05T16:56:40.375Z,25.72
2018-09-05T16:59:40.341Z,25.79
2018-09-05T17:02:40.275Z,25.71
2018-09-05T17:05:40.279Z,25.82
2018-09-05T17:08:40.254Z,25.84
2018-09-05T17:11:40.221Z,25.83
2018-09-05T17:14:40.142Z,25.72
2018-09-05T17:17:40.147Z,25.67
2018-09-05T17:20:40.108Z,25.68
2018-09-05T17:23:40.077Z,25.57
2018-09-05T17:26:40.042Z,25.50
2018-09-05T17:29:40.005Z,25.38
2018-09-05T17:32:39.951Z,25.09
2018-09-05T17:35:39.944Z,24.97
2018-09-05T17:38:39.887Z,24.69
2018-09-05T17:41:39.875Z,24.50
2018-09-05T17:44:39.825Z,24.49
2018-09-05T17:47:39.832Z,24.35
2018-09-05T17:50:39.773Z,24.32
2018-09-05T17:53:39.814Z,24.19
2018-09-05T17:56:39.688Z,24.20
2018-09-05T17:59:39.685Z,24.23
2018-09-05T18:02:39.632Z,24.32
2018-09-05T18:05:39.645Z,24.22
2018-09-05T18:08:39.565Z,24.12
2018-09-05T18:11:39.561Z,24.12
2018-09-05T18:14:39.610Z,23.46
2018-09-05T18:17:39.506Z,22.65
2018-09-05T18:20:39.449Z,22.16
2018-09-05T18:23:39.420Z,21.91
2018-09-05T18:26:39.372Z,21.74
2018-09-05T18:29:39.400Z,21.83
2018-09-05T18:32:39.299Z,21.82
2018-09-05T18:35:39.293Z,21.92
2018-09-05T18:38:39.257Z,21.99
2018-09-05T18:41:39.213Z,22.10
2018-09-05T18:44:39.172Z,21.99
2018-09-05T18:47:39.136Z,21.95
2018-09-05T18:50:39.152Z,21.81
2018-09-05T18:53:39.101Z,21.92
2018-09-05T18:56:39.031Z,21.85
2018-09-05T18:59:39.069Z,21.78
2018-09-05T19:02:41.992Z,21.59
2018-09-05T19:05:49.583Z,21.61
2018-09-05T19:08:38.915Z,21.56
2018-09-05T19:11:38.879Z,21.64
2018-09-05T19:14:38.827Z,21.56
2018-09-05T19:17:38.812Z,21.41
2018-09-05T19:20:38.761Z,21.27
2018-09-05T19:23:38.752Z,21.32
2018-09-05T19:26:38.697Z,21.13
2018-09-05T19:29:38.668Z,21.14
2018-09-05T19:32:38.624Z,21.06
2018-09-05T19:35:38.712Z,20.76
2018-09-05T19:38:38.607Z,20.61
2018-09-05T19:41:38.540Z,20.25
2018-09-05T19:44:38.494Z,20.16
2018-09-05T19:47:38.481Z,20.16
2018-09-05T19:50:38.447Z,20.03
2018-09-05T19:53:38.440Z,20.10
2018-09-05T19:56:38.426Z,20.08
2018-09-05T19:59:38.336Z,20.13
2018-09-05T20:02:38.300Z,20.02
2018-09-05T20:05:38.278Z,20.05
2018-09-05T20:08:38.254Z,20.10
2018-09-05T20:11:38.210Z,20.06
2018-09-05T20:14:38.250Z,20.09
2018-09-05T20:17:38.139Z,20.08
2018-09-05T20:20:38.089Z,20.08
2018-09-05T20:23:38.079Z,20.15
2018-09-05T20:26:38.029Z,20.13
2018-09-05T20:29:38.000Z,20.27
2018-09-05T20:32:37.979Z,20.24
2018-09-05T20:35:38.554Z,20.16
2018-09-05T20:38:37.893Z,20.15
2018-09-05T20:41:37.872Z,20.15
2018-09-05T20:44:37.835Z,20.10
2018-09-05T20:47:37.805Z,20.12
2018-09-05T20:50:37.766Z,20.02
2018-09-05T20:53:37.747Z,20.09
2018-09-05T20:56:37.694Z,20.03
2018-09-05T20:59:37.687Z,20.03
2018-09-05T21:02:37.628Z,19.93
2018-09-05T21:05:37.607Z,19.94
2018-09-05T21:08:37.631Z,19.87
2018-09-05T21:11:37.550Z,19.88
2018-09-05T21:14:37.529Z,19.84
2018-09-05T21:17:37.490Z,19.84
2018-09-05T21:20:37.442Z,19.86
2018-09-05T21:23:37.441Z,19.75
2018-09-05T21:26:37.463Z,19.53
2018-09-05T21:29:37.367Z,19.48
2018-09-05T21:32:37.324Z,19.42
2018-09-05T21:35:37.283Z,19.48
2018-09-05T21:38:37.253Z,19.39
2018-09-05T21:41:37.213Z,19.40
2018-09-05T21:44:37.169Z,19.42
2018-09-05T21:47:37.152Z,19.48
2018-09-05T21:50:37.101Z,19.51
2018-09-05T21:53:37.143Z,19.42
2018-09-05T21:56:37.036Z,19.47
2018-09-05T21:59:37.012Z,19.39
2018-09-05T22:02:36.966Z,19.39
2018-09-05T22:05:36.954Z,19.57
2018-09-05T22:08:36.895Z,19.53
2018-09-05T22:11:36.973Z,19.50
2018-09-05T22:14:36.843Z,19.39
2018-09-05T22:17:36.829Z,19.47
2018-09-05T22:20:36.819Z,19.24
2018-09-05T22:23:36.746Z,19.25
2018-09-05T22:26:36.713Z,19.02
2018-09-05T22:29:36.682Z,18.99
2018-09-05T22:32:36.630Z,19.02
2018-09-05T22:35:36.609Z,19.06
2018-09-05T22:38:36.610Z,19.01
2018-09-05T22:41:36.547Z,18.87
2018-09-05T22:44:36.512Z,18.86
2018-09-05T22:47:36.481Z,18.76
2018-09-05T22:50:36.449Z,18.70
2018-09-05T22:53:36.425Z,18.58
2018-09-05T22:56:36.389Z,18.40
2018-09-05T22:59:36.343Z,18.28
2018-09-05T23:02:36.303Z,18.15
2018-09-05T23:05:36.293Z,18.12
2018-09-05T23:08:36.228Z,18.13
2018-09-05T23:11:36.217Z,18.12
2018-09-05T23:14:36.168Z,18.06
2018-09-05T23:17:36.158Z,17.97
2018-09-05T23:20:36.098Z,17.95
2018-09-05T23:23:36.099Z,17.95
2018-09-05T23:26:36.040Z,17.97
2018-09-05T23:29:36.021Z,17.87
2018-09-05T23:32:35.975Z,17.70
2018-09-05T23:35:35.943Z,17.62
2018-09-05T23:38:35.921Z,17.64
2018-09-05T23:41:35.874Z,17.64
2018-09-05T23:44:35.849Z,17.55
2018-09-05T23:47:35.817Z,17.66
2018-09-05T23:50:35.774Z,17.59
2018-09-05T23:53:35.748Z,17.66
2018-09-05T23:56:35.715Z,17.71
2018-09-05T23:59:35.687Z,17.69
